Copper Queen, Arizona
Current Conditions -  °F | °C
As of 5:56 PM on Saturday 20 Dec 2014 (Local Time) from KDUG Reporting Station
Clear Clear  
Wind Chill: 45°   Ceiling: Unl
Heat Index: 47°   Visibility: 10mi
Dew Point: 25°   Wind: 5mph
Humidity: 42%   Direction: 10°N
Pressure: 30.09"   Gusts: NA
Location:  31.4799°N, 109.96°W
Report Text: KDUG 210056Z AUTO 01004KT 10SM CLR 08/M04 A3009 RMK AO2 SLP187 T00831039
Loading
Personal Weather Stations






























Interactive Weather Map New forecast layout! Learn more

10-Day Weather Forecast

Advertisements
Track Severe Weather on mobile